createdAt,value
2023-04-29T00:01:21.722Z,20.40
2023-04-29T00:03:49.970Z,17.13
2023-04-29T00:06:17.312Z,16.63
2023-04-29T00:08:44.673Z,17.30
2023-04-29T00:11:11.853Z,14.40
2023-04-29T00:13:42.149Z,13.50
2023-04-29T00:16:12.372Z,16.20
2023-04-29T00:18:39.446Z,14.20
2023-04-29T00:21:06.449Z,14.90
2023-04-29T00:23:34.298Z,15.17
2023-04-29T00:26:01.329Z,13.77
2023-04-29T00:28:28.552Z,14.60
2023-04-29T00:30:56.405Z,11.73
2023-04-29T00:33:23.801Z,12.70
2023-04-29T00:35:51.041Z,13.00
2023-04-29T00:38:17.984Z,12.03
2023-04-29T00:40:45.549Z,12.27
2023-04-29T00:43:12.806Z,12.70
2023-04-29T00:45:39.976Z,10.80
2023-04-29T00:48:07.066Z,11.40
2023-04-29T00:50:34.396Z,11.90
2023-04-29T00:53:01.597Z,11.30
2023-04-29T00:55:30.083Z,10.47
2023-04-29T00:57:57.582Z,11.27
2023-04-29T01:00:26.463Z,9.77
2023-04-29T01:02:55.263Z,9.00
2023-04-29T01:05:22.196Z,8.83
2023-04-29T01:08:27.362Z,8.63
2023-04-29T01:11:11.331Z,8.00
2023-04-29T01:13:54.947Z,10.20
2023-04-29T01:16:43.707Z,9.73
2023-04-29T01:19:52.934Z,9.13
2023-04-29T01:22:22.244Z,7.03
2023-04-29T01:24:50.108Z,7.67
2023-04-29T01:27:36.010Z,10.00
2023-04-29T01:30:53.035Z,8.87
2023-04-29T01:33:41.200Z,6.10
2023-04-29T01:36:17.383Z,7.10
2023-04-29T01:39:00.050Z,5.43
2023-04-29T01:41:46.227Z,6.20
2023-04-29T01:44:24.901Z,8.37
2023-04-29T01:46:54.430Z,9.20
2023-04-29T01:49:26.458Z,9.37
2023-04-29T01:51:53.769Z,9.27
2023-04-29T01:54:22.388Z,8.03
2023-04-29T01:56:49.918Z,8.70
2023-04-29T01:59:31.758Z,6.57
2023-04-29T02:02:21.598Z,6.17
2023-04-29T02:04:57.583Z,6.17
2023-04-29T02:07:24.571Z,7.23
2023-04-29T02:09:51.829Z,5.93
2023-04-29T02:12:18.976Z,5.27
2023-04-29T02:14:48.262Z,6.30
2023-04-29T02:17:15.331Z,5.70
2023-04-29T02:19:43.492Z,7.00
2023-04-29T02:22:12.730Z,6.90
2023-04-29T02:24:41.577Z,6.70
2023-04-29T02:27:08.506Z,6.07
2023-04-29T02:29:35.466Z,6.10
2023-04-29T02:32:02.509Z,6.43
2023-04-29T02:34:29.654Z,5.60
2023-04-29T02:36:56.593Z,6.70
2023-04-29T02:39:23.571Z,7.03
2023-04-29T02:41:56.386Z,6.23
2023-04-29T02:44:23.334Z,5.70
2023-04-29T02:46:50.284Z,5.80
2023-04-29T02:49:17.193Z,4.90
2023-04-29T02:51:44.272Z,4.90
2023-04-29T02:54:12.530Z,5.20
2023-04-29T02:56:39.483Z,5.27
2023-04-29T02:59:06.668Z,6.63
2023-04-29T03:01:33.714Z,6.67
2023-04-29T03:04:00.944Z,6.67
2023-04-29T03:06:28.078Z,5.10
2023-04-29T03:08:54.978Z,5.63
2023-04-29T03:11:24.862Z,4.33
2023-04-29T03:13:51.906Z,5.53
2023-04-29T03:16:19.193Z,5.40
2023-04-29T03:18:46.267Z,5.63
2023-04-29T03:21:13.228Z,5.53
2023-04-29T03:23:40.432Z,5.70
2023-04-29T03:26:09.633Z,6.13
2023-04-29T03:28:37.685Z,5.67
2023-04-29T03:31:04.719Z,5.37
2023-04-29T03:33:31.706Z,4.80
2023-04-29T03:35:58.576Z,5.00
2023-04-29T03:38:35.150Z,5.53
2023-04-29T03:41:02.848Z,5.23
2023-04-29T03:43:31.441Z,5.90
2023-04-29T03:45:58.413Z,5.07
2023-04-29T03:48:25.955Z,5.30
2023-04-29T03:50:53.413Z,5.83
2023-04-29T03:53:22.130Z,5.40
2023-04-29T03:55:49.057Z,4.83
2023-04-29T03:58:16.852Z,4.90
2023-04-29T04:00:44.342Z,5.23
2023-04-29T04:03:17.006Z,5.13
2023-04-29T04:05:44.400Z,5.40
2023-04-29T04:08:14.593Z,6.10
2023-04-29T04:10:44.595Z,5.63
2023-04-29T04:13:38.150Z,6.17
2023-04-29T04:16:05.398Z,6.70
2023-04-29T04:18:32.691Z,5.27
2023-04-29T04:21:06.170Z,5.40
2023-04-29T04:23:33.204Z,6.83
2023-04-29T04:26:03.942Z,6.30
2023-04-29T04:29:00.043Z,7.27
2023-04-29T04:31:53.149Z,5.77
2023-04-29T04:34:21.467Z,7.03
2023-04-29T04:36:50.685Z,5.87
2023-04-29T04:39:17.680Z,6.03
2023-04-29T04:41:44.822Z,6.40
2023-04-29T04:44:12.436Z,6.53
2023-04-29T04:47:06.534Z,6.53
2023-04-29T04:49:56.048Z,7.00
2023-04-29T04:52:23.199Z,5.73
2023-04-29T04:55:07.670Z,6.43
2023-04-29T04:57:36.447Z,6.03
2023-04-29T05:00:04.545Z,6.60
2023-04-29T05:02:32.671Z,6.07
2023-04-29T05:04:59.636Z,7.10
2023-04-29T05:07:30.101Z,6.87
2023-04-29T05:10:03.973Z,6.43
2023-04-29T05:12:32.958Z,7.83
2023-04-29T05:15:01.664Z,6.80
2023-04-29T05:17:30.028Z,6.40
2023-04-29T05:19:56.946Z,6.80
2023-04-29T05:22:24.080Z,7.50
2023-04-29T05:24:53.030Z,6.87
2023-04-29T05:27:20.708Z,6.53
2023-04-29T05:29:49.143Z,6.37
2023-04-29T05:32:15.976Z,6.73
2023-04-29T05:34:44.731Z,8.40
2023-04-29T05:37:11.653Z,7.30
2023-04-29T05:39:53.017Z,6.80
2023-04-29T05:42:20.226Z,7.10
2023-04-29T05:44:50.770Z,6.50
2023-04-29T05:47:17.633Z,6.83
2023-04-29T05:49:44.568Z,7.33
2023-04-29T05:52:12.127Z,7.27
2023-04-29T05:54:44.490Z,7.40
2023-04-29T05:57:12.423Z,7.80
2023-04-29T05:59:40.411Z,6.20
2023-04-29T06:02:08.850Z,7.00
2023-04-29T06:04:36.805Z,8.60
2023-04-29T06:07:22.789Z,6.63
2023-04-29T06:10:01.386Z,7.40
2023-04-29T06:12:29.654Z,6.67
2023-04-29T06:14:58.147Z,7.23
2023-04-29T06:17:37.701Z,6.63
2023-04-29T06:20:14.435Z,6.40
2023-04-29T06:22:44.553Z,6.30
2023-04-29T06:25:20.509Z,6.70
2023-04-29T06:27:57.198Z,7.10
2023-04-29T06:30:30.577Z,8.33
2023-04-29T06:33:00.695Z,8.07
2023-04-29T06:35:34.789Z,7.10
2023-04-29T06:38:35.076Z,8.10
2023-04-29T06:41:15.354Z,6.47
2023-04-29T06:43:59.312Z,7.27
2023-04-29T06:47:07.580Z,7.60
2023-04-29T06:50:01.998Z,7.30
2023-04-29T06:52:36.075Z,8.30
2023-04-29T06:55:09.589Z,7.60
2023-04-29T06:57:43.171Z,6.10
2023-04-29T07:00:16.502Z,8.10
2023-04-29T07:02:44.038Z,7.97
2023-04-29T07:05:23.053Z,7.30
2023-04-29T07:08:05.370Z,9.53
2023-04-29T07:10:47.619Z,7.10
2023-04-29T07:13:31.871Z,7.50
2023-04-29T07:16:01.349Z,7.40
2023-04-29T07:18:34.994Z,7.60
2023-04-29T07:21:16.129Z,7.20
2023-04-29T07:23:46.126Z,6.37
2023-04-29T07:26:27.183Z,8.10
2023-04-29T07:28:57.388Z,6.53
2023-04-29T07:31:28.304Z,7.00
2023-04-29T07:34:10.929Z,6.37
2023-04-29T07:36:42.267Z,6.10
2023-04-29T07:39:12.601Z,7.30
2023-04-29T07:41:47.105Z,7.00
2023-04-29T07:44:22.478Z,7.67
2023-04-29T07:47:04.610Z,8.87
2023-04-29T07:49:55.770Z,8.00
2023-04-29T07:52:23.577Z,6.67
2023-04-29T07:54:56.935Z,7.30
2023-04-29T07:57:44.666Z,7.80
2023-04-29T08:00:19.623Z,6.93
2023-04-29T08:02:54.603Z,7.37
2023-04-29T08:05:23.780Z,6.90
2023-04-29T08:07:51.830Z,6.30
2023-04-29T08:10:19.689Z,6.90
2023-04-29T08:12:46.975Z,7.60
2023-04-29T08:15:14.208Z,7.33
2023-04-29T08:17:41.265Z,6.73
2023-04-29T08:20:09.673Z,6.63
2023-04-29T08:22:36.854Z,5.83
2023-04-29T08:25:06.101Z,6.87
2023-04-29T08:27:33.140Z,6.13
2023-04-29T08:30:00.039Z,6.80
2023-04-29T08:32:27.092Z,7.00
2023-04-29T08:34:54.430Z,6.63
2023-04-29T08:37:21.633Z,7.13
2023-04-29T08:39:51.341Z,7.80
2023-04-29T08:42:21.729Z,8.60
2023-04-29T08:44:50.148Z,7.10
2023-04-29T08:47:17.994Z,6.80
2023-04-29T08:49:44.925Z,7.73
2023-04-29T08:52:11.949Z,6.23
2023-04-29T08:54:38.879Z,7.07
2023-04-29T08:57:06.750Z,6.40
2023-04-29T08:59:33.977Z,5.90
2023-04-29T09:02:01.094Z,6.60
2023-04-29T09:04:52.671Z,5.80
2023-04-29T09:07:19.838Z,5.73
2023-04-29T09:09:47.779Z,6.43
2023-04-29T09:12:14.771Z,5.37
2023-04-29T09:14:41.744Z,4.97
2023-04-29T09:17:08.630Z,5.30
2023-04-29T09:19:36.764Z,5.50
2023-04-29T09:22:04.891Z,5.60
2023-04-29T09:24:32.425Z,6.87
2023-04-29T09:27:00.558Z,4.70
2023-04-29T09:29:27.512Z,5.10
2023-04-29T09:31:54.391Z,4.90
2023-04-29T09:34:41.029Z,5.13
2023-04-29T09:37:34.325Z,4.90
2023-04-29T09:40:01.860Z,5.00
2023-04-29T09:42:28.951Z,4.40
2023-04-29T09:44:55.860Z,4.43
2023-04-29T09:47:32.032Z,4.87
2023-04-29T09:50:11.430Z,4.30
2023-04-29T09:52:44.317Z,4.30
2023-04-29T09:55:11.717Z,4.37
2023-04-29T09:57:44.853Z,4.30
2023-04-29T10:00:15.526Z,4.83
2023-04-29T10:02:43.654Z,4.60
2023-04-29T10:05:12.311Z,5.40
2023-04-29T10:07:40.203Z,4.70
2023-04-29T10:10:08.499Z,4.50
2023-04-29T10:12:35.879Z,4.70
2023-04-29T10:15:26.429Z,4.30
2023-04-29T10:17:55.357Z,3.97
2023-04-29T10:20:24.778Z,3.90
2023-04-29T10:22:54.980Z,4.33
2023-04-29T10:25:23.474Z,3.93
2023-04-29T10:27:53.811Z,4.00
2023-04-29T10:30:22.191Z,3.27
2023-04-29T10:32:52.020Z,3.70
2023-04-29T10:35:23.105Z,3.73
2023-04-29T10:37:50.790Z,4.23
2023-04-29T10:40:23.133Z,4.20
2023-04-29T10:42:55.870Z,4.30
2023-04-29T10:45:31.937Z,4.33
2023-04-29T10:48:10.966Z,3.63
2023-04-29T10:50:47.029Z,3.30
2023-04-29T10:53:15.439Z,3.00
2023-04-29T10:55:42.929Z,3.30
2023-04-29T10:58:35.341Z,3.40
2023-04-29T11:01:02.745Z,2.87
2023-04-29T11:03:58.869Z,3.10
2023-04-29T11:06:40.362Z,3.40
2023-04-29T11:09:12.885Z,2.27
2023-04-29T11:11:49.133Z,2.73
2023-04-29T11:14:22.784Z,2.87
2023-04-29T11:16:52.947Z,3.50
2023-04-29T11:19:20.646Z,3.30
2023-04-29T11:21:47.962Z,4.50
2023-04-29T11:24:18.165Z,3.87
2023-04-29T11:26:46.632Z,4.13
2023-04-29T11:29:14.383Z,4.17
2023-04-29T11:31:41.552Z,4.97
2023-04-29T11:34:08.653Z,5.07
2023-04-29T11:36:36.406Z,4.53
2023-04-29T11:39:04.444Z,3.37
2023-04-29T11:41:31.876Z,3.67
2023-04-29T11:44:00.388Z,3.50
2023-04-29T11:46:31.263Z,3.63
2023-04-29T11:49:00.385Z,3.97
2023-04-29T11:51:28.769Z,3.67
2023-04-29T11:53:58.364Z,3.80
2023-04-29T11:56:25.835Z,4.60
2023-04-29T11:58:57.184Z,4.20
2023-04-29T12:01:26.108Z,4.53
2023-04-29T12:03:59.743Z,4.73
2023-04-29T12:06:32.551Z,5.90
2023-04-29T12:09:00.945Z,5.33
2023-04-29T12:11:29.138Z,5.17
2023-04-29T12:13:57.283Z,5.07
2023-04-29T12:16:24.524Z,3.73
2023-04-29T12:18:53.521Z,5.43
2023-04-29T12:21:22.612Z,4.57
2023-04-29T12:23:51.448Z,5.33
2023-04-29T12:26:19.533Z,4.17
2023-04-29T12:28:46.941Z,5.20
2023-04-29T12:31:15.949Z,5.93
2023-04-29T12:33:46.705Z,5.03
2023-04-29T12:36:18.632Z,4.70
2023-04-29T12:38:47.824Z,4.20
2023-04-29T12:41:17.599Z,5.37
2023-04-29T12:43:44.917Z,4.20
2023-04-29T12:46:15.207Z,4.67
2023-04-29T12:48:43.978Z,5.97
2023-04-29T12:51:11.963Z,4.60
2023-04-29T12:53:39.275Z,4.30
2023-04-29T12:56:06.911Z,4.00
2023-04-29T12:58:35.196Z,4.33
2023-04-29T13:01:02.288Z,3.87
2023-04-29T13:03:29.496Z,3.60
2023-04-29T13:05:57.493Z,4.00
2023-04-29T13:08:24.445Z,5.30
2023-04-29T13:10:51.817Z,4.80
2023-04-29T13:13:18.925Z,4.40
2023-04-29T13:15:45.766Z,5.13
2023-04-29T13:18:12.740Z,4.10
2023-04-29T13:20:42.218Z,3.90
2023-04-29T13:23:10.298Z,3.53
2023-04-29T13:25:37.273Z,4.00
2023-04-29T13:28:05.709Z,3.87
2023-04-29T13:30:33.482Z,4.40
2023-04-29T13:33:07.930Z,4.10
2023-04-29T13:35:38.543Z,2.90
2023-04-29T13:38:05.593Z,3.20
2023-04-29T13:40:37.378Z,2.93
2023-04-29T13:43:09.619Z,2.40
2023-04-29T13:45:41.277Z,2.77
2023-04-29T13:48:26.149Z,2.17
2023-04-29T14:03:27.094Z,2.77
2023-04-29T14:05:54.183Z,2.17
2023-04-29T14:08:21.132Z,2.17
2023-04-29T14:10:48.152Z,2.10
2023-04-29T14:13:15.004Z,2.03
2023-04-29T14:15:41.883Z,2.43
2023-04-29T14:18:10.010Z,3.93
2023-04-29T14:20:36.921Z,2.83
2023-04-29T14:23:04.046Z,2.40
2023-04-29T14:25:33.629Z,2.00
2023-04-29T14:28:00.933Z,2.10
2023-04-29T14:30:27.837Z,2.57
2023-04-29T14:32:54.680Z,2.20
2023-04-29T14:35:21.702Z,2.57
2023-04-29T14:37:48.645Z,2.93
2023-04-29T14:40:16.260Z,2.87
2023-04-29T14:42:43.241Z,2.43
2023-04-29T14:45:10.516Z,2.60
2023-04-29T14:47:37.463Z,2.83
2023-04-29T14:50:05.082Z,2.30
2023-04-29T14:52:31.938Z,3.00
2023-04-29T14:54:58.830Z,2.70
2023-04-29T14:57:25.830Z,2.10
2023-04-29T14:59:52.708Z,1.60
2023-04-29T15:02:19.550Z,1.90
2023-04-29T15:04:46.625Z,2.10
2023-04-29T15:07:14.055Z,1.80
2023-04-29T15:09:41.177Z,1.97
2023-04-29T15:12:09.223Z,2.47
2023-04-29T15:14:36.084Z,1.70
2023-04-29T15:17:02.987Z,1.93
2023-04-29T15:19:29.899Z,1.93
2023-04-29T15:21:56.752Z,2.27
2023-04-29T15:24:23.812Z,2.00
2023-04-29T15:26:52.150Z,1.80
2023-04-29T15:29:19.224Z,1.80
2023-04-29T15:31:46.213Z,1.97
2023-04-29T15:34:13.139Z,1.60
2023-04-29T15:36:40.504Z,2.17
2023-04-29T15:39:11.127Z,1.80
2023-04-29T15:41:39.233Z,1.60
2023-04-29T15:44:06.531Z,2.03
2023-04-29T15:46:33.602Z,2.00
2023-04-29T15:49:01.231Z,1.77
2023-04-29T15:51:28.133Z,2.00
2023-04-29T15:53:54.977Z,1.87
2023-04-29T15:56:21.881Z,2.30
2023-04-29T15:58:48.706Z,2.17
2023-04-29T16:01:16.191Z,1.90
2023-04-29T16:03:43.124Z,2.20
2023-04-29T16:06:10.254Z,2.67
2023-04-29T16:08:37.107Z,2.87
2023-04-29T16:11:03.974Z,2.73
2023-04-29T16:13:30.841Z,2.50
2023-04-29T16:15:57.895Z,7.03
2023-04-29T16:18:24.906Z,4.07
2023-04-29T16:20:52.359Z,2.10
2023-04-29T16:23:19.219Z,2.17
2023-04-29T16:25:46.111Z,1.90
2023-04-29T16:28:13.075Z,2.03
2023-04-29T16:30:39.948Z,2.47
2023-04-29T16:33:06.792Z,2.50
2023-04-29T16:35:34.494Z,1.83
2023-04-29T16:38:01.346Z,2.10
2023-04-29T16:40:29.849Z,2.03
2023-04-29T16:42:57.605Z,2.70
2023-04-29T16:45:25.793Z,2.57
2023-04-29T16:47:53.278Z,2.47
2023-04-29T16:50:20.370Z,2.47
2023-04-29T16:52:47.243Z,2.33
2023-04-29T16:55:14.196Z,2.13
2023-04-29T16:57:41.573Z,3.40
2023-04-29T17:00:12.358Z,3.13
2023-04-29T17:02:40.650Z,2.57
2023-04-29T17:05:09.325Z,1.97
2023-04-29T17:07:36.306Z,2.87
2023-04-29T17:10:03.910Z,2.93
2023-04-29T17:12:30.767Z,2.80
2023-04-29T17:14:57.605Z,3.00
2023-04-29T17:17:24.582Z,1.90
2023-04-29T17:19:51.954Z,2.70
2023-04-29T17:22:20.071Z,5.40
2023-04-29T17:24:47.047Z,5.63
2023-04-29T17:27:14.059Z,6.63
2023-04-29T17:29:41.307Z,6.70
2023-04-29T17:32:11.552Z,5.33
2023-04-29T17:34:38.656Z,6.70
2023-04-29T17:37:06.755Z,7.03
2023-04-29T17:39:34.648Z,6.43
2023-04-29T17:42:01.678Z,6.73
2023-04-29T17:44:29.151Z,7.03
2023-04-29T17:46:56.029Z,6.47
2023-04-29T17:49:23.023Z,7.27
2023-04-29T17:51:49.980Z,6.67
2023-04-29T17:54:16.986Z,7.30
2023-04-29T17:56:43.903Z,7.27
2023-04-29T17:59:11.349Z,7.30
2023-04-29T18:01:38.317Z,6.83
2023-04-29T18:04:06.184Z,7.87
2023-04-29T18:06:33.452Z,7.77
2023-04-29T18:09:00.834Z,7.90
2023-04-29T18:11:27.826Z,7.27
2023-04-29T18:13:54.826Z,8.00
2023-04-29T18:16:22.052Z,6.93
2023-04-29T18:18:52.493Z,7.83
2023-04-29T18:21:22.583Z,8.30
2023-04-29T18:23:49.905Z,8.37
2023-04-29T18:26:16.966Z,8.33
2023-04-29T18:28:48.118Z,8.47
2023-04-29T18:31:18.938Z,8.70
2023-04-29T18:33:46.187Z,8.40
2023-04-29T18:36:14.493Z,7.80
2023-04-29T18:38:42.083Z,8.47
2023-04-29T18:41:09.210Z,7.60
2023-04-29T18:43:36.812Z,9.80
2023-04-29T18:46:03.866Z,9.70
2023-04-29T18:48:31.334Z,9.83
2023-04-29T18:51:00.454Z,8.10
2023-04-29T18:53:27.366Z,8.30
2023-04-29T18:55:54.207Z,8.77
2023-04-29T18:58:21.709Z,8.73
2023-04-29T19:00:48.965Z,7.63
2023-04-29T19:03:16.052Z,9.03
2023-04-29T19:05:43.495Z,8.80
2023-04-29T19:08:10.454Z,8.80
2023-04-29T19:10:37.340Z,9.40
2023-04-29T19:13:04.304Z,9.17
2023-04-29T19:15:32.273Z,8.37
2023-04-29T19:17:59.251Z,8.33
2023-04-29T19:20:27.257Z,9.20
2023-04-29T19:22:54.137Z,8.63
2023-04-29T19:25:41.291Z,9.50
2023-04-29T19:28:08.333Z,9.33
2023-04-29T19:30:35.440Z,8.17
2023-04-29T19:33:05.450Z,9.30
2023-04-29T19:35:32.602Z,8.63
2023-04-29T19:37:59.489Z,10.10
2023-04-29T19:40:26.558Z,8.70
2023-04-29T19:42:53.430Z,9.50
2023-04-29T19:45:21.186Z,9.60
2023-04-29T19:47:50.118Z,9.17
2023-04-29T19:50:17.113Z,9.13
2023-04-29T19:52:44.017Z,9.70
2023-04-29T19:55:11.009Z,8.10
2023-04-29T19:57:39.065Z,9.07
2023-04-29T20:00:06.812Z,9.07
2023-04-29T20:02:33.970Z,9.97
2023-04-29T20:05:01.118Z,9.37
2023-04-29T20:07:28.018Z,7.27
2023-04-29T20:09:55.611Z,8.83
2023-04-29T20:12:22.767Z,8.50
2023-04-29T20:14:49.685Z,7.63
2023-04-29T20:17:17.976Z,8.30
2023-04-29T20:19:45.118Z,7.50
2023-04-29T20:22:12.032Z,9.43
2023-04-29T20:24:38.924Z,8.73
2023-04-29T20:27:05.886Z,7.40
2023-04-29T20:29:32.909Z,7.10
2023-04-29T20:32:00.181Z,8.73
2023-04-29T20:34:27.105Z,7.70
2023-04-29T20:36:54.064Z,8.40
2023-04-29T20:39:21.086Z,8.73
2023-04-29T20:41:47.922Z,10.17
2023-04-29T20:44:14.762Z,9.10
2023-04-29T20:46:41.677Z,9.10
2023-04-29T20:49:08.751Z,9.07
2023-04-29T20:51:35.876Z,8.83
2023-04-29T20:54:02.832Z,8.27
2023-04-29T20:56:29.701Z,8.50
2023-04-29T20:58:58.976Z,8.40
2023-04-29T21:01:26.126Z,7.90
2023-04-29T21:03:53.172Z,8.90
2023-04-29T21:06:20.067Z,8.00
2023-04-29T21:08:47.136Z,7.70
2023-04-29T21:11:14.214Z,7.10
2023-04-29T21:13:41.028Z,8.87
2023-04-29T21:16:08.125Z,8.20
2023-04-29T21:18:34.991Z,8.50
2023-04-29T21:21:01.925Z,8.43
2023-04-29T21:23:28.828Z,8.43
2023-04-29T21:25:55.879Z,7.97
2023-04-29T21:28:22.690Z,7.80
2023-04-29T21:30:49.591Z,8.07
2023-04-29T21:33:16.552Z,8.17
2023-04-29T21:35:43.641Z,7.53
2023-04-29T21:38:10.594Z,7.67
2023-04-29T21:40:41.131Z,7.17
2023-04-29T21:43:09.640Z,8.20
2023-04-29T21:45:36.769Z,7.03
2023-04-29T21:48:29.899Z,7.93
2023-04-29T21:50:56.925Z,6.90
2023-04-29T21:53:23.842Z,7.97
2023-04-29T21:55:50.723Z,7.07
2023-04-29T21:58:18.585Z,7.77
2023-04-29T22:00:58.545Z,8.47
2023-04-29T22:03:25.607Z,7.00
2023-04-29T22:05:52.609Z,8.90
2023-04-29T22:08:19.519Z,8.93
2023-04-29T22:10:46.762Z,8.83
2023-04-29T22:13:13.806Z,8.47
2023-04-29T22:15:40.911Z,7.37
2023-04-29T22:18:07.865Z,8.90
2023-04-29T22:20:34.774Z,8.37
2023-04-29T22:23:01.704Z,9.37
2023-04-29T22:25:28.761Z,7.33
2023-04-29T22:27:55.785Z,8.17
2023-04-29T22:30:22.735Z,7.97
2023-04-29T22:32:49.691Z,8.00
2023-04-29T22:35:16.785Z,8.30
2023-04-29T22:37:43.736Z,9.67
2023-04-29T22:40:12.290Z,9.80
2023-04-29T22:42:39.872Z,9.50
2023-04-29T22:45:07.478Z,9.27
2023-04-29T22:47:34.428Z,9.30
2023-04-29T22:50:01.334Z,9.13
2023-04-29T22:52:28.352Z,8.23
2023-04-29T22:54:55.268Z,8.80
2023-04-29T22:57:22.108Z,8.90
2023-04-29T22:59:49.486Z,9.13
2023-04-29T23:02:16.330Z,9.40
2023-04-29T23:04:43.349Z,10.10
2023-04-29T23:07:10.192Z,9.97
2023-04-29T23:09:36.998Z,9.23
2023-04-29T23:12:04.138Z,9.30
2023-04-29T23:14:31.654Z,8.90
2023-04-29T23:16:58.665Z,9.57
2023-04-29T23:19:26.202Z,9.50
2023-04-29T23:21:53.101Z,8.90
2023-04-29T23:24:19.981Z,8.63
2023-04-29T23:26:46.827Z,8.87
2023-04-29T23:29:13.662Z,10.70
2023-04-29T23:31:40.660Z,9.77
2023-04-29T23:34:08.491Z,10.07
2023-04-29T23:36:36.396Z,10.00
2023-04-29T23:39:03.350Z,10.57
2023-04-29T23:41:30.225Z,9.97
2023-04-29T23:44:01.198Z,9.43
2023-04-29T23:46:28.373Z,9.93
2023-04-29T23:48:55.236Z,10.17
2023-04-29T23:51:22.182Z,9.27
2023-04-29T23:53:48.988Z,10.33
2023-04-29T23:56:15.888Z,10.20
2023-04-29T23:58:42.747Z,10.03
